首页
METAR-TAF:

METAR-TAF

机场 :

温贝托·德尔加多机场

里斯本, 葡萄牙

纬度: 38-46N, 经度: 009-08W, 海拔: 114米

当前天气观测

该预报发布于34分钟前的14:00 UTC
风速5节,风向多变
温度 25°C
湿度 50%
气压 1022 hPa
能见度10公里或以上
少量云层高于4000英尺

METAR: LPPT 231400Z VRB05KT 9999 FEW040 25/14 Q1022

时间: 15:34 (14:34 UTC)

预报

该预报发布于3小时和34分钟前的11:00 UTC
预报有效从23日的 12点(UTC)到 24日的 18点(UTC)
风速7节,风向
能见度10公里或以上
少量云层高于4000英尺
成为
从 23日的 12点(UTC)到 23日的 14点(UTC)
风速7节,风向南转南东
几率 30% :
短暂存在
从 23日的 14点(UTC)到 23日的 18点(UTC)
能見度: 8000
多云层高于2000英尺
少量云层高于3500英尺, 塔状积云.
阵雨
成为
从 23日的 17点(UTC)到 23日的 20点(UTC)
风速3节,风向多变
短暂存在
从 24日的 04点(UTC)到 24日的 08点(UTC)
散云层高于400英尺
成为
从 24日的 06点(UTC)到 24日的 08点(UTC)
风速7节,风向东转东北

TAF: LPPT 231100Z 2312/2418 08007KT 9999 FEW040 BECMG 2312/2314 16007KT PROB30 TEMPO 2314/2318 8000 SHRA BKN020 FEW035TCU BECMG 2317/2320 VRB03KT TEMPO 2404/2408 SCT004 BECMG 2406/2408 07007KT

超过4000个机场的气象观测和天气预报(METAR&TAF报告)。

可查询的气象台以黄色和红色小点在地图上表示。

将鼠标移到小点上方,可查看气象台名称。

然后点击查看天气观测和预报。

如需切换地图:点击带黑十字的绿色按钮放大地图;点击带横线的绿色按钮缩小地图;或者点击绿色箭头查看邻近地区的地图。


METAR-TAF: